Terminal Aerodrome Forecast
Issued by NWS

Home | Current Version | Previous Version | Text Only | Print | Product List | Glossary On
Versions: 1 2 3 4 5 6 7 8 9 10 11 12 13 14 15 16 17 18 19 20 21 22 23 24 25 26 27 28 29 30 31 32 33
209
FTUS46 KPQR 072327
TAFONP
TAF
KONP 072327Z 0800/0824 09021G27KT P6SM BKN200
     FM081000 09023G30KT P6SM OVC150
     FM081200 09021G29KT 6SM -SN OVC030
     FM081600 09021G29KT 6SM -FZRA OVC030
     FM081900 11020G27KT 2SM -RA BR OVC015=

USA.gov is the U.S. government's official web portal to all federal, state and local government web resources and services.